Time;durP1;ratioP1;P1;durP2;ratioP2;P2;SDS_P1;SDS_P2;PMS_P1;PMS_P2;Temp;Humidity;BMP_temperature;BMP_pressure;BME280_temperature;BME280_humidity;BME280_pressure;Samples;Min_cycle;Max_cycle;Signal;HPM_P1;HPM_P2
2021/12/15 00:00:39;;;;;;;;;;;;;;;13.97;58.38;101907.78;4986126;28;101113;-60
2021/12/15 00:03:06;;;;;;;;;;;;;;;13.96;58.34;101908.84;4982349;28;118702;-61
2021/12/15 00:05:32;;;;;;;;;;;;;;;13.98;58.39;101912.13;4984904;28;120761;-60
2021/12/15 00:07:59;;;;;;;;;;;;;;;13.98;58.58;101916.72;4968494;28;122610;-61
2021/12/15 00:10:25;;;;;;;;;;;;;;;13.97;58.65;101915.91;4985311;28;98578;-69
2021/12/15 00:12:51;;;;;;;;;;;;;;;13.98;58.78;101917.53;4986183;28;122381;-68
2021/12/15 00:15:18;;;;;;;;;;;;;;;13.97;58.57;101918.63;4984981;28;112333;-60
2021/12/15 00:17:44;;;;;;;;;;;;;;;13.96;58.37;101908.84;4969356;28;97864;-60
2021/12/15 00:20:12;;;;;;;;;;;;;;;13.98;58.76;101917.53;4981717;28;116461;-61
2021/12/15 00:22:38;;;;;;;;;;;;;;;13.99;58.37;101910.25;4982999;28;98224;-60
2021/12/15 00:25:05;;;;;;;;;;;;;;;13.98;58.37;101912.13;4983978;28;125869;-69
2021/12/15 00:27:31;;;;;;;;;;;;;;;13.98;58.53;101912.13;4982984;28;119474;-69
2021/12/15 00:29:57;;;;;;;;;;;;;;;13.99;58.38;101907.53;4984951;28;128360;-69
2021/12/15 00:32:23;;;;;;;;;;;;;;;13.98;58.36;101906.69;4961280;28;99880;-69
2021/12/15 00:34:51;;;;;;;;;;;;;;;13.99;58.30;101904.84;4947804;28;127040;-69
2021/12/15 00:37:18;;;;;;;;;;;;;;;13.98;58.43;101906.69;4982705;28;97966;-61
2021/12/15 00:39:44;;;;;;;;;;;;;;;13.99;58.76;101911.06;4984923;28;123262;-60
2021/12/15 00:42:10;;;;;;;;;;;;;;;13.99;58.34;101919.19;4984177;28;128849;-59
2021/12/15 00:44:36;;;;;;;;;;;;;;;14.00;58.76;101914.59;4981664;28;126876;-69
2021/12/15 00:47:03;;;;;;;;;;;;;;;14.00;58.61;101925.44;4984576;28;113318;-60
2021/12/15 00:49:29;;;;;;;;;;;;;;;14.01;58.35;101927.06;4983575;28;98929;-61
2021/12/15 00:51:55;;;;;;;;;;;;;;;14.00;58.75;101923.53;4983351;28;128421;-60
2021/12/15 00:54:22;;;;;;;;;;;;;;;14.02;58.77;101927.88;4981817;28;129331;-69
2021/12/15 00:56:52;;;;;;;;;;;;;;;14.01;58.37;101929.78;4979936;28;97955;-70
2021/12/15 00:59:18;;;;;;;;;;;;;;;14.03;58.72;101932.22;4981983;28;98528;-60
2021/12/15 01:01:44;;;;;;;;;;;;;;;14.02;58.62;101931.41;4981904;28;121028;-61
2021/12/15 01:04:11;;;;;;;;;;;;;;;14.03;58.50;101940.34;4985455;28;128429;-60
2021/12/15 01:06:38;;;;;;;;;;;;;;;14.03;58.77;101941.19;4978720;28;98314;-60
2021/12/15 01:09:07;;;;;;;;;;;;;;;14.03;58.38;101941.19;4975452;28;99107;-69
2021/12/15 01:19:58;;;;;;;;;;;;;;;14.04;58.53;101931.16;4934184;28;98043;-60
2021/12/15 01:22:33;;;;;;;;;;;;;;;14.05;58.44;101938.22;4966315;28;98416;-69
2021/12/15 01:25:03;;;;;;;;;;;;;;;14.04;58.84;101937.41;4985216;28;97726;-60
2021/12/15 01:27:29;;;;;;;;;;;;;;;14.05;58.26;101933.63;4975847;28;97739;-69
2021/12/15 01:29:55;;;;;;;;;;;;;;;14.05;58.75;101930.91;4984422;28;126850;-70
2021/12/15 01:32:21;;;;;;;;;;;;;;;14.04;58.39;101934.69;4983365;28;98850;-70
2021/12/15 01:34:47;;;;;;;;;;;;;;;14.05;58.59;101933.63;4983640;28;126365;-60
2021/12/15 01:37:13;;;;;;;;;;;;;;;14.05;58.73;101932.81;4974012;28;122363;-70
2021/12/15 01:39:40;;;;;;;;;;;;;;;14.06;58.63;101932.53;4984184;28;98436;-60
2021/12/15 01:42:06;;;;;;;;;;;;;;;14.06;58.71;101934.44;4964351;28;99332;-69
2021/12/15 01:47:01;;;;;;;;;;;;;;;14.06;58.74;101929.00;4969220;28;109743;-70
2021/12/15 01:49:39;;;;;;;;;;;;;;;14.05;58.65;101927.38;4982842;28;97884;-60
2021/12/15 01:52:09;;;;;;;;;;;;;;;14.06;58.42;101929.00;4983105;28;97880;-60
2021/12/15 01:54:35;;;;;;;;;;;;;;;14.05;58.54;101930.91;4964257;28;98157;-69
2021/12/15 01:57:02;;;;;;;;;;;;;;;14.04;58.73;101934.69;4956223;28;97945;-61
2021/12/15 01:59:29;;;;;;;;;;;;;;;14.05;58.81;101932.81;4978499;28;99591;-70
2021/12/15 02:01:55;;;;;;;;;;;;;;;14.05;58.73;101927.38;4985772;28;98594;-69
2021/12/15 02:04:21;;;;;;;;;;;;;;;14.05;58.62;101936.31;4982306;28;117032;-60
2021/12/15 02:06:47;;;;;;;;;;;;;;;14.06;58.43;101946.09;4972228;28;99185;-61
2021/12/15 02:09:16;;;;;;;;;;;;;;;14.06;58.30;101934.44;4977169;28;98309;-69
2021/12/15 02:11:42;;;;;;;;;;;;;;;14.05;58.67;101928.19;4984681;28;99254;-60
2021/12/15 02:14:11;;;;;;;;;;;;;;;14.05;58.39;101927.38;4982579;28;98321;-60
2021/12/15 02:16:37;;;;;;;;;;;;;;;14.05;58.38;101933.63;4981470;28;98322;-60
2021/12/15 02:19:03;;;;;;;;;;;;;;;14.04;58.37;101931.97;4978530;28;100004;-70
2021/12/15 02:21:29;;;;;;;;;;;;;;;14.05;58.41;101938.22;4960998;28;98671;-60
2021/12/15 02:23:57;;;;;;;;;;;;;;;14.05;58.48;101949.06;4978006;28;119876;-60
2021/12/15 02:26:34;;;;;;;;;;;;;;;14.04;58.83;101947.44;4957392;28;97909;-60
2021/12/15 02:29:01;;;;;;;;;;;;;;;14.03;58.53;101941.19;4975125;28;98317;-60
2021/12/15 02:31:56;;;;;;;;;;;;;;;14.04;58.54;101945.53;4982138;28;98825;-60
2021/12/15 02:37:15;;;;;;;;;;;;;;;14.03;58.77;101953.91;4967840;28;98175;-60
2021/12/15 02:39:45;;;;;;;;;;;;;;;14.02;58.57;101955.81;4970915;28;98459;-69
2021/12/15 02:42:11;;;;;;;;;;;;;;;14.02;58.50;101952.28;4982679;28;99315;-69
2021/12/15 02:44:41;;;;;;;;;;;;;;;14.03;58.55;101962.03;4984698;28;122913;-70
2021/12/15 02:47:07;;;;;;;;;;;;;;;14.03;58.56;101964.75;4969257;28;97969;-70
2021/12/15 02:49:33;;;;;;;;;;;;;;;14.02;58.77;101955.81;4981185;28;128923;-69
2021/12/15 02:51:59;;;;;;;;;;;;;;;14.02;58.79;101961.22;4982448;28;128842;-61
2021/12/15 02:54:25;;;;;;;;;;;;;;;14.02;58.38;101961.22;4980491;28;98146;-60
2021/12/15 02:56:53;;;;;;;;;;;;;;;14.03;58.66;101953.91;4970676;28;123683;-70
2021/12/15 02:59:21;;;;;;;;;;;;;;;14.01;58.51;101956.88;4976947;28;98045;-60
2021/12/15 03:02:01;;;;;;;;;;;;;;;14.02;58.59;101953.09;4982703;28;98532;-70
2021/12/15 03:04:36;;;;;;;;;;;;;;;14.02;58.35;101957.69;4982907;28;97804;-69
2021/12/15 03:07:11;;;;;;;;;;;;;;;14.02;58.34;101963.94;4977823;28;97777;-61
2021/12/15 03:17:41;;;;;;;;;;;;;;;14.00;58.65;101975.06;4977113;28;97737;-69
2021/12/15 03:20:08;;;;;;;;;;;;;;;14.00;58.79;101977.75;4982799;28;115923;-61
2021/12/15 03:22:34;;;;;;;;;;;;;;;14.00;58.37;101976.94;4965771;28;99394;-60
2021/12/15 03:25:00;;;;;;;;;;;;;;;14.00;58.38;101988.59;4984906;28;97938;-60
2021/12/15 03:33:16;;;;;;;;;;;;;;;14.00;58.36;101976.94;4969905;28;115711;-61
2021/12/15 03:36:04;;;;;;;;;;;;;;;13.99;58.43;101980.75;4981833;28;98155;-70
2021/12/15 03:38:29;;;;;;;;;;;;;;;13.99;58.44;101978.84;4977060;28;98188;-70
2021/12/15 03:40:55;;;;;;;;;;;;;;;13.99;58.43;101978.84;4984230;28;118812;-61
2021/12/15 03:43:22;;;;;;;;;;;;;;;13.98;58.58;101979.88;4984333;28;98932;-70
2021/12/15 03:45:56;;;;;;;;;;;;;;;13.99;58.34;101978.03;4986468;28;98231;-70
2021/12/15 03:48:27;;;;;;;;;;;;;;;13.98;58.71;101979.88;4967171;28;110226;-60
2021/12/15 03:50:53;;;;;;;;;;;;;;;13.96;58.52;101976.63;4985649;28;98591;-70
2021/12/15 03:53:19;;;;;;;;;;;;;;;13.97;58.61;101970.13;4986636;28;97739;-69
2021/12/15 03:55:45;;;;;;;;;;;;;;;13.98;58.33;101974.47;4966510;28;98776;-60
2021/12/15 03:58:13;;;;;;;;;;;;;;;13.96;58.80;101971.22;4977320;28;115660;-71
2021/12/15 04:00:46;;;;;;;;;;;;;;;13.97;58.57;101975.56;4984483;28;99774;-68
2021/12/15 04:03:22;;;;;;;;;;;;;;;13.96;58.57;101975.81;4986966;28;100362;-70
2021/12/15 04:05:48;;;;;;;;;;;;;;;13.95;58.70;101972.28;4982666;28;118277;-60
2021/12/15 04:08:14;;;;;;;;;;;;;;;13.94;58.80;101977.94;4966151;28;121995;-60
2021/12/15 04:10:40;;;;;;;;;;;;;;;13.94;58.77;101975.22;4986527;28;127923;-61
2021/12/15 04:13:06;;;;;;;;;;;;;;;13.94;58.69;101975.22;4966627;28;107308;-70
2021/12/15 04:15:42;;;;;;;;;;;;;;;13.94;58.28;101981.47;4985164;28;98104;-61
2021/12/15 04:18:09;;;;;;;;;;;;;;;13.92;58.40;101980.91;4968924;28;97908;-61
2021/12/15 04:20:35;;;;;;;;;;;;;;;13.92;58.46;101980.91;4966872;28;98309;-60
2021/12/15 04:23:01;;;;;;;;;;;;;;;13.92;58.34;101986.34;4984291;27;120018;-69
2021/12/15 04:25:33;;;;;;;;;;;;;;;13.92;58.72;101986.34;4986331;28;97876;-70
2021/12/15 04:28:05;;;;;;;;;;;;;;;13.91;58.77;101990.13;4975850;28;97681;-62
2021/12/15 04:30:33;;;;;;;;;;;;;;;13.92;58.59;101988.25;4985681;28;99372;-70
2021/12/15 04:33:03;;;;;;;;;;;;;;;13.92;58.36;101986.34;4984245;28;98788;-60
2021/12/15 04:35:29;;;;;;;;;;;;;;;13.91;58.48;101989.28;4985492;28;97909;-60
2021/12/15 04:37:55;;;;;;;;;;;;;;;13.91;58.61;101992.84;4967252;28;123736;-70
2021/12/15 04:40:22;;;;;;;;;;;;;;;13.91;58.76;101981.16;4985281;28;99170;-69
2021/12/15 04:42:48;;;;;;;;;;;;;;;13.91;58.34;101986.56;4984670;28;98935;-69
2021/12/15 04:45:16;;;;;;;;;;;;;;;13.90;58.38;101988.47;4984709;28;98434;-60
2021/12/15 04:47:41;;;;;;;;;;;;;;;13.90;58.67;101982.22;4967298;28;97897;-60
2021/12/15 04:50:08;;;;;;;;;;;;;;;13.90;58.65;101984.94;4982707;28;128080;-60
2021/12/15 04:52:34;;;;;;;;;;;;;;;13.90;58.34;101991.19;4985822;28;98426;-60
2021/12/15 04:55:01;;;;;;;;;;;;;;;13.90;58.69;101995.78;4983786;28;97890;-60
2021/12/15 04:57:27;;;;;;;;;;;;;;;13.90;58.54;102002.03;4968556;28;98320;-60
2021/12/15 04:59:53;;;;;;;;;;;;;;;13.89;58.69;101997.69;4988610;28;110923;-63
2021/12/15 05:02:19;;;;;;;;;;;;;;;13.90;58.46;102006.63;4984633;28;97925;-60
2021/12/15 05:04:45;;;;;;;;;;;;;;;13.89;58.33;102005.81;4983796;28;121333;-60
2021/12/15 05:07:11;;;;;;;;;;;;;;;13.89;58.44;102003.09;4969199;28;97718;-69
2021/12/15 05:09:37;;;;;;;;;;;;;;;13.90;58.31;102004.72;4985369;28;118494;-69
2021/12/15 05:12:04;;;;;;;;;;;;;;;13.89;58.27;102008.53;4982710;28;98641;-60
2021/12/15 05:14:30;;;;;;;;;;;;;;;13.91;58.58;102011.81;4984379;28;98875;-69
2021/12/15 05:16:56;;;;;;;;;;;;;;;13.90;58.35;102015.56;4979211;28;97738;-70
2021/12/15 05:19:27;;;;;;;;;;;;;;;13.91;58.50;102022.66;4981410;28;100738;-69
2021/12/15 05:21:56;;;;;;;;;;;;;;;13.91;58.33;102022.66;4983628;28;99083;-70
2021/12/15 05:24:30;;;;;;;;;;;;;;;13.92;58.27;102026.19;4984724;28;98245;-67
2021/12/15 05:27:02;;;;;;;;;;;;;;;13.92;58.29;102020.75;4955006;28;98042;-60
2021/12/15 05:29:28;;;;;;;;;;;;;;;13.92;58.50;102018.88;4982269;28;99552;-70
2021/12/15 05:31:54;;;;;;;;;;;;;;;13.92;58.25;102023.47;4988274;28;106063;-69
2021/12/15 05:34:21;;;;;;;;;;;;;;;13.92;58.71;102020.75;4989044;28;98714;-70
2021/12/15 05:36:48;;;;;;;;;;;;;;;13.92;58.31;102024.28;4983635;28;97934;-70
2021/12/15 05:39:14;;;;;;;;;;;;;;;13.92;58.33;102015.34;4986352;28;98579;-69
2021/12/15 05:41:40;;;;;;;;;;;;;;;13.93;58.59;102020.50;4988337;28;127994;-70
2021/12/15 05:44:06;;;;;;;;;;;;;;;13.93;58.19;102019.69;4988469;28;98214;-70
2021/12/15 05:46:32;;;;;;;;;;;;;;;13.92;58.59;102024.28;4980892;28;121404;-70
2021/12/15 05:48:58;;;;;;;;;;;;;;;13.93;58.42;102015.09;4977387;28;129287;-69
2021/12/15 05:51:24;;;;;;;;;;;;;;;13.92;58.58;102010.75;4985098;28;127394;-70
2021/12/15 05:53:50;;;;;;;;;;;;;;;13.92;58.50;102010.75;4987396;28;126812;-69
2021/12/15 05:56:18;;;;;;;;;;;;;;;13.93;58.21;102008.84;4987017;28;97795;-69
2021/12/15 05:58:45;;;;;;;;;;;;;;;13.92;58.31;102013.44;4966536;28;98054;-70
2021/12/15 06:01:10;;;;;;;;;;;;;;;13.93;58.31;102030.53;4984129;28;112705;-70
2021/12/15 06:03:36;;;;;;;;;;;;;;;13.93;58.13;102025.91;4952873;28;126933;-70
2021/12/15 06:06:02;;;;;;;;;;;;;;;13.93;58.38;102028.63;4969253;28;112026;-70
2021/12/15 06:08:28;;;;;;;;;;;;;;;13.93;58.59;102031.34;4978716;28;112072;-69
2021/12/15 06:10:54;;;;;;;;;;;;;;;13.92;58.22;102027.00;4987361;28;127812;-69
2021/12/15 06:13:26;;;;;;;;;;;;;;;13.93;58.39;102025.09;4987700;28;101880;-70
2021/12/15 06:15:52;;;;;;;;;;;;;;;13.92;58.39;102027.00;4988522;28;97709;-69
2021/12/15 06:18:18;;;;;;;;;;;;;;;13.92;58.31;102035.13;4960021;28;98233;-69
2021/12/15 06:20:46;;;;;;;;;;;;;;;13.93;58.19;102034.06;4967476;28;120966;-70
2021/12/15 06:23:17;;;;;;;;;;;;;;;13.93;58.54;102033.25;4967908;28;98055;-69
2021/12/15 06:25:44;;;;;;;;;;;;;;;13.93;58.44;102042.19;4968646;28;97970;-70
2021/12/15 06:28:10;;;;;;;;;;;;;;;13.93;58.51;102047.59;4948050;28;121970;-70
2021/12/15 06:30:36;;;;;;;;;;;;;;;13.94;58.12;102048.44;4985925;28;98826;-69
2021/12/15 06:33:02;;;;;;;;;;;;;;;13.94;58.50;102053.84;4985024;28;98434;-70
2021/12/15 06:35:28;;;;;;;;;;;;;;;13.94;58.07;102059.28;4976795;28;123624;-70
2021/12/15 06:37:54;;;;;;;;;;;;;;;13.94;58.54;102061.97;4967489;28;99192;-70
2021/12/15 06:40:20;;;;;;;;;;;;;;;13.93;58.51;102055.75;4983756;28;115399;-70
2021/12/15 06:42:46;;;;;;;;;;;;;;;13.95;58.46;102060.91;4982485;28;127060;-69
2021/12/15 06:45:15;;;;;;;;;;;;;;;13.95;58.44;102060.91;4976448;28;122241;-69
2021/12/15 06:57:17;;;;;;;;;;;;;;;13.94;58.47;102056.56;4969940;28;99021;-69
2021/12/15 06:58:43;;;;;;;;;;;;;;;13.94;58.26;102064.69;4969655;28;98246;-69
2021/12/15 07:01:10;;;;;;;;;;;;;;;13.94;58.11;102065.50;4952563;28;100802;-70
2021/12/15 07:03:36;;;;;;;;;;;;;;;13.94;58.11;102076.34;4987165;28;98004;-70
2021/12/15 07:06:02;;;;;;;;;;;;;;;13.95;58.18;102077.16;4986323;28;123753;-70
2021/12/15 07:08:28;;;;;;;;;;;;;;;13.96;58.11;102081.53;4970422;28;106933;-70
2021/12/15 07:10:54;;;;;;;;;;;;;;;13.95;58.48;102083.44;4988486;28;98496;-70
2021/12/15 07:13:20;;;;;;;;;;;;;;;13.95;58.46;102086.16;4986453;28;97859;-60
2021/12/15 07:15:47;;;;;;;;;;;;;;;13.95;58.16;102091.56;4984267;28;97968;-60
2021/12/15 07:18:15;;;;;;;;;;;;;;;13.95;58.26;102088.84;4967512;28;98153;-70
2021/12/15 07:20:47;;;;;;;;;;;;;;;13.96;58.17;102095.91;4982487;28;98683;-60
2021/12/15 07:23:15;;;;;;;;;;;;;;;13.97;58.40;102094.81;4979943;28;97887;-61
2021/12/15 07:25:42;;;;;;;;;;;;;;;13.97;58.38;102094.81;4983674;28;103898;-60
2021/12/15 07:28:08;;;;;;;;;;;;;;;13.98;58.07;102095.66;4982932;28;99316;-70
2021/12/15 07:30:35;;;;;;;;;;;;;;;13.98;58.03;102092.94;4964916;28;98743;-60
2021/12/15 07:33:01;;;;;;;;;;;;;;;14.00;58.18;102088.09;4982732;28;98226;-60
2021/12/15 07:35:27;;;;;;;;;;;;;;;14.01;57.99;102078.88;4979568;28;121625;-61
2021/12/15 07:37:53;;;;;;;;;;;;;;;14.02;57.97;102085.94;4967605;28;97985;-70
2021/12/15 07:40:21;;;;;;;;;;;;;;;14.03;58.35;102084.88;4980631;28;98210;-60
2021/12/15 07:43:09;;;;;;;;;;;;;;;14.04;58.25;102093.84;4983694;28;97868;-70
2021/12/15 07:45:51;;;;;;;;;;;;;;;14.03;58.02;102078.63;4984275;28;97854;-61
2021/12/15 07:48:17;;;;;;;;;;;;;;;14.06;57.90;102083.56;4972518;28;99110;-69
2021/12/15 07:50:45;;;;;;;;;;;;;;;14.07;58.14;102087.88;4985092;28;100958;-70
2021/12/15 07:53:11;;;;;;;;;;;;;;;14.08;57.90;102082.22;4981952;28;97887;-60
2021/12/15 07:55:37;;;;;;;;;;;;;;;14.11;58.23;102086.31;4981727;28;112838;-69
2021/12/15 07:58:04;;;;;;;;;;;;;;;14.12;57.91;102077.94;4972492;28;121083;-70
2021/12/15 08:00:30;;;;;;;;;;;;;;;14.14;57.90;102083.94;4983058;28;115413;-61
2021/12/15 08:02:56;;;;;;;;;;;;;;;14.15;57.81;102085.59;4981479;28;126680;-61
2021/12/15 08:05:22;;;;;;;;;;;;;;;14.18;58.14;102093.19;4946241;28;122049;-70
2021/12/15 08:07:48;;;;;;;;;;;;;;;14.20;58.11;102091.06;4957455;28;127975;-61
2021/12/15 08:10:14;;;;;;;;;;;;;;;14.22;58.11;102082.66;4981009;28;124040;-70
2021/12/15 08:12:40;;;;;;;;;;;;;;;14.24;57.92;102083.25;4980544;28;98114;-60
2021/12/15 08:15:07;;;;;;;;;;;;;;;14.26;58.11;102086.50;4981699;28;98335;-71
2021/12/15 08:17:34;;;;;;;;;;;;;;;14.27;57.75;102093.59;4975028;28;98275;-61
2021/12/15 08:20:00;;;;;;;;;;;;;;;14.28;58.01;102100.66;4979646;28;113902;-61
2021/12/15 08:22:26;;;;;;;;;;;;;;;14.31;57.66;102096.63;4976594;28;98354;-61
2021/12/15 08:24:52;;;;;;;;;;;;;;;14.32;58.05;102098.25;4977704;28;104303;-61
2021/12/15 08:27:18;;;;;;;;;;;;;;;14.35;57.60;102097.75;4960037;28;128051;-61
2021/12/15 08:29:44;;;;;;;;;;;;;;;14.36;58.02;102094.78;4976213;28;128293;-61
2021/12/15 08:32:10;;;;;;;;;;;;;;;14.39;57.80;102093.47;4974268;28;127391;-60
2021/12/15 08:34:35;;;;;;;;;;;;;;;14.45;57.88;102100.56;4958734;28;103517;-60
2021/12/15 08:37:01;;;;;;;;;;;;;;;14.47;57.64;102101.16;4968803;28;127458;-60
2021/12/15 08:39:27;;;;;;;;;;;;;;;14.49;57.66;102099.84;4976452;28;116755;-60
2021/12/15 08:41:53;;;;;;;;;;;;;;;14.55;57.48;102100.72;4975768;28;128125;-61
2021/12/15 08:44:19;;;;;;;;;;;;;;;14.60;57.61;102095.34;4975752;28;122701;-61
2021/12/15 08:46:46;;;;;;;;;;;;;;;14.66;57.32;102098.94;4965873;28;128447;-61
2021/12/15 08:49:16;;;;;;;;;;;;;;;14.71;57.22;102097.09;4971378;28;98005;-61
2021/12/15 08:51:42;;;;;;;;;;;;;;;14.78;57.47;102090.66;4976331;28;97903;-61
2021/12/15 08:54:11;;;;;;;;;;;;;;;14.82;57.03;102098.03;4976829;28;97876;-61
2021/12/15 08:56:37;;;;;;;;;;;;;;;14.87;57.01;102100.78;4972595;28;98972;-61
2021/12/15 08:59:04;;;;;;;;;;;;;;;14.92;57.34;102098.13;4972396;28;128106;-61
2021/12/15 09:01:30;;;;;;;;;;;;;;;14.95;57.24;102103.03;4976418;28;97833;-61
2021/12/15 09:03:55;;;;;;;;;;;;;;;14.98;57.00;102099.00;4976836;28;115374;-61
2021/12/15 09:06:21;;;;;;;;;;;;;;;15.01;57.30;102103.06;4971763;28;129059;-61
2021/12/15 09:08:48;;;;;;;;;;;;;;;15.02;57.15;102102.84;4963201;27;128277;-60
2021/12/15 09:11:15;;;;;;;;;;;;;;;15.10;56.96;102106.97;4974872;28;98812;-60
2021/12/15 09:13:47;;;;;;;;;;;;;;;15.14;56.99;102108.91;4978043;28;98389;-60
2021/12/15 09:16:13;;;;;;;;;;;;;;;15.19;57.02;102100.81;4975672;28;98047;-60
2021/12/15 09:18:40;;;;;;;;;;;;;;;15.28;57.24;102100.31;4968912;28;123937;-61
2021/12/15 09:21:07;;;;;;;;;;;;;;;15.36;56.88;102094.41;4974711;28;98078;-61
2021/12/15 09:23:33;;;;;;;;;;;;;;;15.44;56.87;102102.91;4975595;28;117975;-61
2021/12/15 09:25:59;;;;;;;;;;;;;;;15.53;56.86;102095.09;4977293;28;98408;-61
2021/12/15 09:28:25;;;;;;;;;;;;;;;15.61;56.82;102105.47;4970090;28;98894;-61
2021/12/15 09:30:52;;;;;;;;;;;;;;;15.71;56.63;102097.41;4980782;28;98030;-70
2021/12/15 09:33:21;;;;;;;;;;;;;;;15.80;56.34;102097.75;4981953;28;113295;-70
2021/12/15 09:35:47;;;;;;;;;;;;;;;15.86;56.47;102098.59;4983621;28;112658;-70
2021/12/15 09:38:14;;;;;;;;;;;;;;;15.94;56.48;102098.09;4964156;28;116100;-69
2021/12/15 09:40:41;;;;;;;;;;;;;;;15.99;56.53;102097.28;4965792;28;100748;-61
2021/12/15 09:43:07;;;;;;;;;;;;;;;16.04;56.41;102100.88;4983971;28;97910;-61
2021/12/15 09:56:21;;;;;;;;;;;;;;;16.15;56.46;102099.00;4966463;28;115271;-62
2021/12/15 10:04:31;;;;;;;;;;;;;;;16.12;56.76;102110.44;4980708;28;97881;-61
2021/12/15 10:19:57;;;;;;;;;;;;;;;16.14;56.83;102103.63;4981209;27;113824;-69
2021/12/15 10:22:34;;;;;;;;;;;;;;;16.19;57.08;102105.53;4985236;28;98347;-70
2021/12/15 10:25:06;;;;;;;;;;;;;;;16.24;56.94;102102.03;4985703;28;97958;-70
2021/12/15 10:27:51;;;;;;;;;;;;;;;16.26;56.87;102105.31;4966398;28;106159;-70
2021/12/15 10:30:24;;;;;;;;;;;;;;;16.25;57.08;102107.22;4981076;28;98148;-70
2021/12/15 10:32:55;;;;;;;;;;;;;;;16.26;56.97;102108.03;4982009;28;99080;-60
2021/12/15 10:35:28;;;;;;;;;;;;;;;16.25;57.01;102109.13;4984270;28;97987;-70
2021/12/15 10:38:25;;;;;;;;;;;;;;;16.23;57.18;102106.66;4970924;28;109936;-61
2021/12/15 10:41:00;;;;;;;;;;;;;;;16.21;57.18;102103.38;4985174;28;98440;-70
2021/12/15 10:43:35;;;;;;;;;;;;;;;16.23;57.30;102097.66;4984716;28;98189;-61
2021/12/15 10:46:12;;;;;;;;;;;;;;;16.21;57.22;102097.94;4966591;28;98128;-61
2021/12/15 10:49:11;;;;;;;;;;;;;;;16.18;57.28;102096.56;4967498;28;98367;-70
2021/12/15 10:51:39;;;;;;;;;;;;;;;16.15;57.36;102096.28;4981126;28;98722;-70
2021/12/15 10:54:08;;;;;;;;;;;;;;;16.11;57.37;102096.00;4985870;28;97964;-70
2021/12/15 10:56:38;;;;;;;;;;;;;;;16.07;57.65;102094.06;4982564;28;98037;-70
2021/12/15 10:59:12;;;;;;;;;;;;;;;16.03;57.75;102084.78;4981216;28;99954;-70
2021/12/15 11:01:51;;;;;;;;;;;;;;;16.00;57.74;102091.59;4986534;28;98941;-70
2021/12/15 11:04:36;;;;;;;;;;;;;;;15.94;57.87;102088.03;4980221;28;98474;-70
2021/12/15 11:07:29;;;;;;;;;;;;;;;15.90;57.96;102086.91;4962324;28;97994;-70
2021/12/15 11:10:05;;;;;;;;;;;;;;;15.87;57.94;102092.06;4976203;28;98963;-70
2021/12/15 11:12:38;;;;;;;;;;;;;;;15.82;57.86;102092.03;4987763;28;98558;-70
2021/12/15 11:15:04;;;;;;;;;;;;;;;15.78;58.13;102094.47;4987078;28;98483;-70
2021/12/15 11:17:33;;;;;;;;;;;;;;;15.76;58.11;102096.63;4970914;28;98314;-70
2021/12/15 11:20:24;;;;;;;;;;;;;;;15.75;58.12;102102.31;4986887;28;99049;-68
2021/12/15 11:22:59;;;;;;;;;;;;;;;15.73;57.94;102099.06;4987535;28;98632;-70
2021/12/15 11:25:32;;;;;;;;;;;;;;;15.69;57.93;102099.59;4987958;28;98010;-70
2021/12/15 11:28:10;;;;;;;;;;;;;;;15.70;58.14;102101.22;4959003;28;97871;-70
2021/12/15 11:30:40;;;;;;;;;;;;;;;15.68;58.18;102105.28;4979335;28;98176;-70
2021/12/15 11:33:15;;;;;;;;;;;;;;;15.66;58.32;102089.22;4986512;27;98265;-70
2021/12/15 11:35:45;;;;;;;;;;;;;;;15.65;58.25;102094.94;4965301;28;98814;-71
2021/12/15 11:38:28;;;;;;;;;;;;;;;15.62;57.95;102092.69;4964297;28;97907;-69
2021/12/15 11:40:57;;;;;;;;;;;;;;;15.58;58.39;102091.59;4983435;28;98537;-69
2021/12/15 11:43:31;;;;;;;;;;;;;;;15.56;58.05;102099.16;4980800;28;98250;-70
2021/12/15 11:45:58;;;;;;;;;;;;;;;15.57;58.34;102106.25;4984970;28;98300;-69
2021/12/15 11:48:26;;;;;;;;;;;;;;;15.57;57.96;102098.13;4967165;28;98002;-70
2021/12/15 11:50:55;;;;;;;;;;;;;;;15.58;57.84;102097.84;4981431;28;99096;-60
2021/12/15 11:53:34;;;;;;;;;;;;;;;15.58;57.99;102089.69;4982413;28;98687;-60
2021/12/15 11:56:13;;;;;;;;;;;;;;;15.61;58.14;102093.78;4957353;28;97977;-66
2021/12/15 11:58:39;;;;;;;;;;;;;;;15.64;58.22;102087.81;4965676;28;107277;-60
2021/12/15 12:01:08;;;;;;;;;;;;;;;15.67;57.88;102092.75;4984902;27;117934;-61
2021/12/15 12:03:36;;;;;;;;;;;;;;;15.71;57.86;102085.72;4966165;28;98603;-61
2021/12/15 12:06:03;;;;;;;;;;;;;;;15.78;58.10;102083.59;4963172;28;119998;-61
2021/12/15 12:08:29;;;;;;;;;;;;;;;15.85;57.74;102089.63;4961748;28;98014;-61
2021/12/15 12:10:56;;;;;;;;;;;;;;;15.83;57.74;102080.88;4087623;28;10000701;-61
2021/12/15 12:13:28;;;;;;;;;;;;;;;15.81;57.62;102076.81;4982690;28;98134;-70
2021/12/15 12:16:00;;;;;;;;;;;;;;;15.78;58.00;102077.34;4963654;28;98670;-61
2021/12/15 12:18:27;;;;;;;;;;;;;;;15.74;57.91;102081.66;4969075;27;98421;-70
2021/12/15 12:20:58;;;;;;;;;;;;;;;15.69;58.20;102079.75;4978317;28;98449;-61
2021/12/15 12:23:29;;;;;;;;;;;;;;;15.66;58.27;102074.81;4981863;28;97976;-60
2021/12/15 12:26:09;;;;;;;;;;;;;;;15.66;58.29;102072.91;4521094;28;10000553;-61
2021/12/15 12:28:37;;;;;;;;;;;;;;;15.67;58.13;102073.72;4095386;28;10000193;-70
2021/12/15 12:31:07;;;;;;;;;;;;;;;15.67;58.06;102074.53;4978936;28;97515;-69
2021/12/15 12:33:33;;;;;;;;;;;;;;;15.67;58.18;102079.97;4980333;27;99071;-70
2021/12/15 12:36:17;;;;;;;;;;;;;;;15.66;58.22;102077.53;4962314;28;105271;-61
2021/12/15 12:39:00;;;;;;;;;;;;;;;15.66;58.05;102069.38;4967593;28;98030;-61
2021/12/15 12:41:28;;;;;;;;;;;;;;;15.65;58.23;102062.31;4978506;28;114958;-60
2021/12/15 12:43:59;;;;;;;;;;;;;;;15.65;58.26;102070.47;4961054;28;117025;-61
2021/12/15 12:46:34;;;;;;;;;;;;;;;15.64;58.14;102072.34;4972984;28;98809;-61
2021/12/15 12:59:59;;;;;;;;;;;;;;;15.61;58.37;102070.16;4973842;28;98149;-60
2021/12/15 13:02:27;;;;;;;;;;;;;;;15.60;58.34;102062.22;4970461;28;119194;-60
2021/12/15 13:04:53;;;;;;;;;;;;;;;15.59;58.34;102060.59;4977542;28;98909;-60
2021/12/15 13:07:45;;;;;;;;;;;;;;;15.59;58.48;102061.41;4978145;28;127721;-61
2021/12/15 13:10:10;;;;;;;;;;;;;;;15.61;58.29;102061.19;4973979;28;98465;-70
2021/12/15 13:12:39;;;;;;;;;;;;;;;15.67;58.22;102060.13;4978856;28;122472;-70
2021/12/15 13:15:06;;;;;;;;;;;;;;;15.70;58.21;102063.16;4960126;28;98483;-61
2021/12/15 13:17:36;;;;;;;;;;;;;;;15.74;58.15;102059.91;4956825;28;123110;-70
2021/12/15 13:20:03;;;;;;;;;;;;;;;15.76;58.27;102065.88;4981253;28;97788;-61
2021/12/15 13:22:43;;;;;;;;;;;;;;;15.72;58.16;102057.47;4977906;28;97971;-61
2021/12/15 13:31:09;;;;;;;;;;;;;;;15.86;58.03;102069.50;4974089;28;97781;-61
2021/12/15 13:33:36;;;;;;;;;;;;;;;15.88;58.02;102078.22;4972142;28;97951;-61
2021/12/15 13:36:26;;;;;;;;;;;;;;;15.87;57.85;102083.91;4976866;28;98514;-60
2021/12/15 13:39:03;;;;;;;;;;;;;;;15.85;58.18;102077.94;4947513;28;106474;-61
2021/12/15 13:42:00;;;;;;;;;;;;;;;15.84;58.16;102082.56;4975998;28;97929;-60
2021/12/15 13:44:35;;;;;;;;;;;;;;;15.83;58.01;102075.44;4976450;28;97991;-61
2021/12/15 13:47:08;;;;;;;;;;;;;;;15.81;58.25;102079.53;4962277;28;98143;-61
2021/12/15 13:49:41;;;;;;;;;;;;;;;15.78;58.31;102077.34;4960765;28;98529;-60
2021/12/15 13:52:16;;;;;;;;;;;;;;;15.75;58.45;102075.13;4975684;28;98217;-61
2021/12/15 13:54:42;;;;;;;;;;;;;;;15.73;58.53;102074.59;4975605;28;97874;-60
2021/12/15 13:57:13;;;;;;;;;;;;;;;15.73;58.44;102080.03;4967760;28;98489;-60
2021/12/15 13:59:45;;;;;;;;;;;;;;;15.70;58.36;102084.09;4968310;28;98474;-61
2021/12/15 14:02:17;;;;;;;;;;;;;;;15.66;58.45;102075.63;4974923;28;122241;-61
2021/12/15 14:04:47;;;;;;;;;;;;;;;15.63;58.54;102073.41;4975036;28;98450;-61